Time;durP1;ratioP1;P1;durP2;ratioP2;P2;SDS_P1;SDS_P2;PMS_P1;PMS_P2;Temp;Humidity;BMP_temperature;BMP_pressure;BME280_temperature;BME280_humidity;BME280_pressure;Samples;Min_cycle;Max_cycle;Signal;HPM_P1;HPM_P2
2023/05/15 00:00:55;;;;;;;27.35;21.75;;;;;;;11.09;95.48;101441.81;6134217;23;20067;-78
2023/05/15 00:03:21;;;;;;;32.00;22.23;;;;;;;11.05;95.79;101446.22;6185572;23;20028;-77
2023/05/15 00:05:46;;;;;;;29.15;22.45;;;;;;;11.03;95.27;101445.38;6109126;23;20005;-77
2023/05/15 00:08:12;;;;;;;28.33;22.77;;;;;;;11.04;95.33;101444.47;6158893;23;20017;-77
2023/05/15 00:10:37;;;;;;;30.92;23.25;;;;;;;11.01;94.97;101448.88;6108568;23;20526;-77
2023/05/15 00:13:03;;;;;;;35.00;24.27;;;;;;;10.99;95.00;101443.63;6110062;23;20060;-77
2023/05/15 00:15:28;;;;;;;29.25;23.08;;;;;;;10.99;95.38;101440.13;6158642;23;20085;-77
2023/05/15 00:17:54;;;;;;;32.20;23.77;;;;;;;10.96;94.93;101434.88;6109900;23;20019;-77
2023/05/15 00:20:19;;;;;;;32.10;24.02;;;;;;;10.94;95.09;101434.03;6183371;23;20059;-78
2023/05/15 00:22:45;;;;;;;30.48;24.08;;;;;;;10.90;94.93;101430.53;6109262;23;20058;-77
2023/05/15 00:25:10;;;;;;;35.47;24.10;;;;;;;10.92;94.63;101420.94;6133701;23;20009;-77
2023/05/15 00:27:36;;;;;;;32.58;24.20;;;;;;;10.88;94.92;101427.06;6158164;23;20016;-78
2023/05/15 00:30:01;;;;;;;32.88;23.38;;;;;;;10.85;95.11;101420.06;6109103;23;20092;-77
2023/05/15 00:32:27;;;;;;;28.10;23.73;;;;;;;10.84;94.93;101425.31;6134126;23;20068;-78
2023/05/15 00:34:55;;;;;;;31.75;23.15;;;;;;;10.85;94.36;101420.06;6109742;23;20012;-78
2023/05/15 00:37:20;;;;;;;30.50;23.58;;;;;;;10.81;94.96;101418.34;6158152;23;20021;-78
2023/05/15 00:39:46;;;;;;;32.55;23.45;;;;;;;10.82;94.52;101413.94;6132780;23;20092;-78
2023/05/15 00:42:12;;;;;;;34.13;24.67;;;;;;;10.81;94.21;101413.09;6134247;23;20403;-78
2023/05/15 00:44:40;;;;;;;31.65;24.17;;;;;;;10.81;93.95;101425.34;6134191;23;20013;-78
2023/05/15 00:47:06;;;;;;;35.92;24.85;;;;;;;10.76;94.46;101422.75;6158453;23;20088;-73
2023/05/15 00:49:34;;;;;;;31.70;23.73;;;;;;;10.75;94.47;101420.97;6133706;23;20080;-73
2023/05/15 00:52:07;;;;;;;32.75;23.48;;;;;;;10.75;94.50;101410.50;6110244;23;20371;-73
2023/05/15 00:54:32;;;;;;;32.72;24.95;;;;;;;10.73;94.09;101405.25;6134157;23;20009;-72
2023/05/15 00:56:59;;;;;;;32.88;25.77;;;;;;;10.72;93.90;101408.75;6157778;23;20031;-73
2023/05/15 00:59:29;;;;;;;32.03;23.92;;;;;;;10.69;94.11;101410.53;6133248;23;20021;-73
2023/05/15 01:01:54;;;;;;;33.08;24.63;;;;;;;10.65;94.16;101414.03;6158323;23;20388;-73
2023/05/15 01:04:20;;;;;;;33.70;24.75;;;;;;;10.63;93.68;101406.19;6158360;23;20016;-73
2023/05/15 01:06:47;;;;;;;32.35;23.20;;;;;;;10.61;93.44;101407.06;6133400;23;20491;-73
2023/05/15 01:09:14;;;;;;;31.02;24.15;;;;;;;10.62;93.41;101399.19;6133306;23;20435;-73
2023/05/15 01:11:41;;;;;;;31.88;23.80;;;;;;;10.65;93.17;101409.66;6108772;23;20013;-73
2023/05/15 01:14:07;;;;;;;35.10;25.38;;;;;;;10.58;93.11;101400.06;6132977;23;20317;-73
2023/05/15 01:16:34;;;;;;;34.15;24.98;;;;;;;10.58;92.82;101403.53;6132690;23;20108;-78
2023/05/15 01:19:00;;;;;;;34.60;26.38;;;;;;;10.56;92.90;101405.31;6133740;23;20076;-78
2023/05/15 01:21:35;;;;;;;34.50;27.35;;;;;;;10.52;93.44;101402.72;6157562;23;20012;-77
2023/05/15 01:24:24;;;;;;;34.78;25.33;;;;;;;10.52;93.42;101397.47;6184957;23;20011;-78
2023/05/15 01:27:19;;;;;;;37.00;28.45;;;;;;;10.48;93.08;101401.81;6158042;23;20009;-79
2023/05/15 01:30:16;;;;;;;37.75;28.67;;;;;;;10.47;93.26;101396.59;6157125;23;20011;-79
2023/05/15 01:32:51;;;;;;;38.08;27.52;;;;;;;10.35;93.52;101394.88;6157120;23;20005;-79
2023/05/15 01:35:44;;;;;;;39.63;29.25;;;;;;;10.36;93.53;101394.00;6157824;23;20012;-78
2023/05/15 01:38:15;;;;;;;33.78;27.33;;;;;;;10.31;93.25;101393.97;6157943;23;20009;-78
2023/05/15 01:40:45;;;;;;;38.22;28.23;;;;;;;10.28;93.25;101387.88;6156970;23;20008;-78
2023/05/15 01:43:17;;;;;;;37.73;29.60;;;;;;;10.22;93.72;101380.91;6157963;23;20111;-79
2023/05/15 01:45:43;;;;;;;41.00;30.05;;;;;;;10.20;93.26;101378.28;6157298;23;20639;-78
2023/05/15 01:48:11;;;;;;;41.42;28.65;;;;;;;10.20;93.22;101380.00;6109282;23;20009;-78
2023/05/15 01:50:39;;;;;;;37.95;30.13;;;;;;;10.20;93.20;101377.38;6132975;23;20356;-78
2023/05/15 01:53:08;;;;;;;38.58;30.52;;;;;;;10.14;93.36;101386.16;6158243;23;20085;-78
2023/05/15 01:55:33;;;;;;;39.17;31.05;;;;;;;10.11;93.71;101380.91;6156829;23;20024;-78
2023/05/15 01:58:01;;;;;;;40.53;32.28;;;;;;;10.10;93.65;101378.28;6156013;23;20416;-78
2023/05/15 02:00:28;;;;;;;39.60;31.25;;;;;;;10.08;93.80;101390.53;6156079;23;20431;-78
2023/05/15 02:02:55;;;;;;;46.13;32.72;;;;;;;10.04;93.74;101380.06;6131970;23;20040;-78
2023/05/15 02:05:21;;;;;;;39.00;31.45;;;;;;;10.03;93.67;101387.91;6157735;23;20013;-78
2023/05/15 02:07:47;;;;;;;40.15;30.95;;;;;;;9.99;93.91;101381.78;6132771;23;20097;-72
2023/05/15 02:10:13;;;;;;;42.88;32.67;;;;;;;9.92;93.90;101380.06;6132413;23;20089;-78
2023/05/15 02:12:40;;;;;;;44.40;32.90;;;;;;;9.92;94.17;101384.41;6107996;23;20340;-78
2023/05/15 02:15:08;;;;;;;40.08;31.90;;;;;;;9.88;93.76;101379.19;6108757;23;20012;-78
2023/05/15 02:17:34;;;;;;;40.60;31.73;;;;;;;9.85;94.12;101379.16;6133072;23;20016;-78
2023/05/15 02:20:01;;;;;;;40.97;31.75;;;;;;;9.79;94.30;101375.69;6133239;23;20005;-78
2023/05/15 02:22:26;;;;;;;43.28;33.55;;;;;;;9.75;94.21;101373.94;6157153;23;20017;-78
2023/05/15 02:24:52;;;;;;;41.55;32.05;;;;;;;9.71;94.58;101387.03;6132250;23;20075;-78
2023/05/15 02:27:26;;;;;;;43.13;33.13;;;;;;;9.67;94.60;101380.06;6158260;23;20009;-78
2023/05/15 02:30:44;;;;;;;42.28;32.85;;;;;;;9.66;94.39;101375.69;6157376;23;20009;-78
2023/05/15 02:33:18;;;;;;;40.28;30.90;;;;;;;9.58;94.26;101380.03;6094221;23;20339;-79
2023/05/15 02:36:04;;;;;;;41.20;31.35;;;;;;;9.57;94.24;101372.19;6156746;23;20009;-78
2023/05/15 02:38:36;;;;;;;42.83;31.48;;;;;;;9.52;94.02;101372.19;6157757;23;20335;-78
2023/05/15 02:41:04;;;;;;;43.42;33.03;;;;;;;9.50;94.50;101368.72;6156423;23;20012;-78
2023/05/15 02:43:31;;;;;;;46.55;32.83;;;;;;;9.51;94.23;101373.03;6133605;23;20451;-78
2023/05/15 02:45:58;;;;;;;44.75;32.75;;;;;;;9.49;94.38;101374.81;6108616;23;20351;-78
2023/05/15 02:48:25;;;;;;;45.05;33.45;;;;;;;9.46;94.75;101380.03;6157158;23;20009;-78
2023/05/15 02:50:51;;;;;;;44.08;33.97;;;;;;;9.42;95.60;101380.91;6132281;23;20008;-77
2023/05/15 02:53:16;;;;;;;45.40;33.20;;;;;;;9.43;95.76;101382.66;6108727;23;20009;-78
2023/05/15 02:55:42;;;;;;;46.33;34.53;;;;;;;9.41;96.35;101380.03;6131839;23;20355;-78
2023/05/15 02:58:08;;;;;;;46.83;33.58;;;;;;;9.41;96.31;101385.25;6108649;23;20025;-77
2023/05/15 03:00:34;;;;;;;46.15;33.88;;;;;;;9.38;96.75;101379.13;6157711;23;20432;-79
2023/05/15 03:03:00;;;;;;;46.60;34.45;;;;;;;9.35;96.60;101383.50;6132974;23;20289;-78
2023/05/15 03:05:25;;;;;;;45.83;34.38;;;;;;;9.35;96.73;101387.84;6157354;23;20016;-77
2023/05/15 03:07:50;;;;;;;48.08;34.85;;;;;;;9.30;96.67;101376.53;6108175;23;20020;-78
2023/05/15 03:10:16;;;;;;;44.92;34.53;;;;;;;9.32;96.38;101373.03;6107541;23;20101;-78
2023/05/15 03:12:41;;;;;;;51.17;34.92;;;;;;;9.23;96.81;101373.00;6108433;23;20016;-73
2023/05/15 03:15:07;;;;;;;48.72;34.72;;;;;;;9.23;96.45;101375.63;6132837;23;20016;-72
2023/05/15 03:17:32;;;;;;;45.83;35.63;;;;;;;9.21;97.19;101373.88;6108788;23;20029;-72
2023/05/15 03:19:58;;;;;;;50.83;37.10;;;;;;;9.18;97.67;101377.38;6132545;23;20031;-72
2023/05/15 03:22:23;;;;;;;55.28;37.03;;;;;;;9.16;97.56;101369.50;6132184;23;20087;-72
2023/05/15 03:24:49;;;;;;;53.10;38.35;;;;;;;9.15;97.91;101374.72;6132000;23;20005;-72
2023/05/15 03:27:15;;;;;;;55.97;39.25;;;;;;;9.10;98.03;101379.09;6132664;23;20017;-72
2023/05/15 03:29:41;;;;;;;58.47;40.53;;;;;;;9.10;98.03;101374.72;6157233;23;20072;-72
2023/05/15 03:32:06;;;;;;;60.35;39.35;;;;;;;9.04;98.58;101376.44;6132763;23;20077;-73
2023/05/15 03:34:32;;;;;;;57.70;40.30;;;;;;;9.04;98.53;101369.47;6108247;23;20340;-73
2023/05/15 03:36:57;;;;;;;58.95;39.97;;;;;;;9.02;98.53;101369.47;6133616;23;20432;-72
2023/05/15 03:39:24;;;;;;;61.65;40.88;;;;;;;8.99;98.55;101364.25;6133233;23;20281;-72
2023/05/15 03:41:52;;;;;;;58.00;40.55;;;;;;;8.96;98.82;101363.34;6134862;23;20475;-73
2023/05/15 03:44:17;;;;;;;62.92;40.75;;;;;;;8.98;98.45;101366.84;6159446;23;20407;-73
2023/05/15 03:46:45;;;;;;;57.28;39.13;;;;;;;8.97;98.10;101368.56;6110321;23;20045;-72
2023/05/15 03:49:10;;;;;;;60.25;40.60;;;;;;;8.94;98.16;101365.09;6134525;23;20084;-72
2023/05/15 03:51:36;;;;;;;62.95;41.13;;;;;;;8.88;98.16;101363.34;6083083;23;20097;-72
2023/05/15 03:57:14;;;;;;;63.20;42.00;;;;;;;8.82;98.55;101363.28;6179661;22;20040;-76
2023/05/15 03:59:40;;;;;;;60.53;39.85;;;;;;;8.80;97.51;101357.19;6159218;23;20426;-76
2023/05/15 04:07:16;;;;;;;62.00;41.20;;;;;;;8.80;97.53;101362.41;6179354;22;20028;-76
2023/05/15 04:09:42;;;;;;;59.05;40.65;;;;;;;8.77;97.78;101363.28;6112037;23;20017;-76
2023/05/15 04:12:07;;;;;;;59.58;40.30;;;;;;;8.76;97.96;101364.13;6159999;22;20077;-72
2023/05/15 04:14:33;;;;;;;59.33;40.13;;;;;;;8.62;98.13;101326.63;6146065;23;20385;-73
2023/05/15 04:19:28;;;;;;;61.73;41.83;;;;;;;8.86;98.24;101358.97;6164122;23;20030;-73
2023/05/15 04:21:54;;;;;;;59.47;41.25;;;;;;;8.90;98.26;101353.75;6121904;22;20267;-71
2023/05/15 04:24:19;;;;;;;68.35;42.85;;;;;;;8.87;98.41;101348.50;6141932;22;20064;-71
2023/05/15 04:26:45;;;;;;;58.03;39.63;;;;;;;8.95;98.02;101352.03;6133460;22;20087;-72
2023/05/15 04:29:11;;;;;;;60.78;39.78;;;;;;;8.99;98.20;101361.63;6162737;23;20009;-78
2023/05/15 04:31:37;;;;;;;60.53;39.75;;;;;;;8.98;97.40;101362.50;6146426;23;20025;-78
2023/05/15 04:34:03;;;;;;;59.20;40.50;;;;;;;8.93;97.84;101353.75;6134557;23;20028;-76
2023/05/15 04:36:29;;;;;;;60.28;40.58;;;;;;;9.08;97.51;101362.50;6091527;23;20084;-72
2023/05/15 04:41:37;;;;;;;61.05;42.20;;;;;;;9.13;97.49;101379.09;6175481;22;20036;31
2023/05/15 04:46:33;;;;;;;62.83;40.58;;;;;;;9.21;97.64;101374.75;6187084;22;20029;-73
2023/05/15 04:48:59;;;;;;;58.22;40.15;;;;;;;9.18;97.50;101387.84;6108834;23;20009;-71
2023/05/15 04:51:24;;;;;;;63.38;41.97;;;;;;;9.22;97.79;101386.94;6157177;23;20024;-71
2023/05/15 04:53:49;;;;;;;58.97;40.95;;;;;;;9.25;97.88;101397.44;6109828;23;20390;-71
2023/05/15 04:56:15;;;;;;;61.50;42.60;;;;;;;9.26;97.63;101407.00;6131832;23;20005;-77
2023/05/15 04:58:41;;;;;;;64.32;39.17;;;;;;;9.27;97.69;101405.28;6108709;23;20095;-77
2023/05/15 05:01:07;;;;;;;59.45;39.85;;;;;;;9.22;97.38;101412.22;6108274;23;20013;-76
2023/05/15 05:03:32;;;;;;;57.72;40.40;;;;;;;9.20;97.14;101404.38;6133273;23;20091;-76
2023/05/15 05:05:57;;;;;;;55.30;38.22;;;;;;;9.16;97.18;101400.88;6157930;23;20553;-76
2023/05/15 05:08:23;;;;;;;54.58;37.05;;;;;;;9.16;96.76;101407.84;6132937;23;20039;-73
2023/05/15 05:10:54;;;;;;;55.88;37.72;;;;;;;9.20;97.02;101404.38;6129416;23;20009;-74
2023/05/15 05:13:20;;;;;;;58.83;38.72;;;;;;;9.18;96.79;101404.38;6156665;23;20043;-73
2023/05/15 05:15:45;;;;;;;53.75;37.65;;;;;;;9.17;96.79;101407.84;6131844;23;20024;-73
2023/05/15 05:18:11;;;;;;;52.22;37.20;;;;;;;9.19;96.51;101403.53;6133058;23;20013;-73
2023/05/15 05:20:38;;;;;;;57.40;37.80;;;;;;;9.19;97.30;101402.63;6133108;23;20013;-74
2023/05/15 05:23:04;;;;;;;55.72;37.25;;;;;;;9.41;98.28;101416.66;6131864;23;20083;-80
2023/05/15 05:25:29;;;;;;;59.17;39.75;;;;;;;9.55;98.69;101408.81;6130465;23;20091;-80
2023/05/15 05:27:55;;;;;;;56.05;38.00;;;;;;;9.78;99.18;101405.34;6132241;23;20054;-80
2023/05/15 05:30:21;;;;;;;55.35;38.67;;;;;;;10.00;98.32;101414.97;6131773;23;20015;-80
2023/05/15 05:32:46;;;;;;;53.50;37.40;;;;;;;10.27;97.41;101410.59;6106929;23;20013;-79
2023/05/15 05:35:12;;;;;;;51.75;36.75;;;;;;;10.47;96.60;101410.56;6154997;23;20376;-79
2023/05/15 05:37:38;;;;;;;53.30;36.53;;;;;;;10.58;94.01;101415.78;6129858;23;20008;-80
2023/05/15 05:40:05;;;;;;;46.58;34.22;;;;;;;10.73;92.88;101428.84;6105601;23;20008;-80
2023/05/15 05:42:33;;;;;;;46.38;32.92;;;;;;;10.81;93.14;101433.19;6107832;23;20020;-80
2023/05/15 05:44:58;;;;;;;45.03;32.70;;;;;;;10.84;91.25;101427.94;6131063;23;20013;-80
2023/05/15 05:47:24;;;;;;;46.67;31.65;;;;;;;10.74;89.50;101432.34;6156133;23;20470;-80
2023/05/15 05:49:52;;;;;;;42.08;32.22;;;;;;;10.71;89.55;101433.22;6132405;23;20036;-79
2023/05/15 05:52:18;;;;;;;43.28;31.30;;;;;;;10.70;89.47;101434.13;6133055;23;20446;-79
2023/05/15 05:54:45;;;;;;;40.47;31.40;;;;;;;10.68;88.78;101430.59;6156704;23;20023;-79
2023/05/15 05:57:10;;;;;;;40.50;31.35;;;;;;;10.66;88.40;101428.84;6157858;23;20005;-79
2023/05/15 05:59:37;;;;;;;39.90;31.35;;;;;;;10.72;88.87;101431.50;6132644;23;20150;-79
2023/05/15 06:02:03;;;;;;;43.20;32.28;;;;;;;10.60;89.15;101421.03;6133063;23;20009;-74
2023/05/15 06:04:28;;;;;;;38.65;30.35;;;;;;;10.57;88.45;101424.50;6157523;23;20005;-73
2023/05/15 06:06:54;;;;;;;40.20;32.33;;;;;;;10.83;90.43;101423.56;6155945;23;20017;-73
2023/05/15 06:09:19;;;;;;;41.00;32.72;;;;;;;11.12;90.90;101425.19;6131962;23;20454;-74
2023/05/15 06:11:45;;;;;;;44.92;33.90;;;;;;;11.44;92.15;101419.78;6132406;23;20005;-80
2023/05/15 06:14:10;;;;;;;40.38;31.92;;;;;;;11.99;91.63;101415.06;6157721;23;20009;-79
2023/05/15 06:16:36;;;;;;;39.15;30.95;;;;;;;12.34;88.84;101424.38;6132356;23;20103;-79
2023/05/15 06:19:02;;;;;;;36.30;29.50;;;;;;;12.53;84.53;101418.03;6133339;23;20013;-78
2023/05/15 06:21:28;;;;;;;33.58;28.55;;;;;;;12.62;83.64;101417.94;6132582;23;20056;-79
2023/05/15 06:23:53;;;;;;;36.22;28.75;;;;;;;13.02;83.18;101421.88;6132619;23;20021;-80
2023/05/15 06:26:20;;;;;;;33.28;28.33;;;;;;;13.24;83.38;101437.38;6182325;23;20088;-80
2023/05/15 06:28:46;;;;;;;33.63;29.13;;;;;;;13.21;79.31;101437.41;6109322;23;20441;-79
2023/05/15 06:31:11;;;;;;;32.83;26.33;;;;;;;12.95;77.56;101439.47;6132733;23;20020;-79
2023/05/15 06:33:36;;;;;;;33.97;27.60;;;;;;;12.86;77.71;101441.34;6133062;23;20013;-79
2023/05/15 06:36:02;;;;;;;32.13;27.55;;;;;;;12.95;79.02;101444.72;6156975;23;20024;-80
2023/05/15 06:38:28;;;;;;;33.90;27.13;;;;;;;12.98;78.53;101443.84;6132866;23;20016;-79
2023/05/15 06:40:53;;;;;;;32.30;26.20;;;;;;;13.01;77.84;101441.16;6131786;23;20024;-80
2023/05/15 06:43:19;;;;;;;33.33;27.60;;;;;;;13.21;79.14;101442.69;6131694;23;20008;-80
2023/05/15 06:45:44;;;;;;;31.98;26.63;;;;;;;13.37;78.40;101430.22;6132852;23;20118;-79
2023/05/15 06:48:10;;;;;;;32.00;26.02;;;;;;;13.81;79.38;101426.06;6132587;23;20021;-80
2023/05/15 06:50:35;;;;;;;32.33;25.63;;;;;;;13.99;76.14;101417.84;6132603;23;20032;-80
2023/05/15 06:53:01;;;;;;;34.45;26.67;;;;;;;14.27;75.71;101424.41;6157110;23;20445;-80
2023/05/15 06:55:26;;;;;;;31.30;25.75;;;;;;;14.38;74.92;101428.59;6132013;23;20013;-78
2023/05/15 06:57:51;;;;;;;31.20;25.40;;;;;;;14.56;73.65;101434.41;6132609;23;20113;-79
2023/05/15 07:00:19;;;;;;;28.10;24.52;;;;;;;14.66;73.16;101424.59;6108262;23;20013;-79
2023/05/15 07:02:45;;;;;;;30.05;25.17;;;;;;;14.64;71.05;101434.28;6132356;23;20104;-80
2023/05/15 07:05:10;;;;;;;30.65;25.40;;;;;;;14.92;73.23;101426.69;6133015;23;20136;-80
2023/05/15 07:07:36;;;;;;;29.63;24.90;;;;;;;15.20;72.56;101437.56;6157235;23;20016;-80
2023/05/15 07:10:01;;;;;;;27.65;23.98;;;;;;;15.24;69.35;101433.94;6131913;23;20009;-79
2023/05/15 07:12:26;;;;;;;28.02;24.67;;;;;;;15.29;69.33;101428.56;6110235;23;20087;-79
2023/05/15 07:14:52;;;;;;;30.50;24.73;;;;;;;15.57;69.42;101426.19;6134204;23;20013;-79
2023/05/15 07:17:18;;;;;;;27.67;23.17;;;;;;;15.51;67.05;101431.56;6134745;23;20100;-80
2023/05/15 07:19:43;;;;;;;25.15;22.45;;;;;;;15.73;67.48;101425.78;6159196;23;20569;-79
2023/05/15 07:22:09;;;;;;;28.90;24.73;;;;;;;15.80;69.97;101430.06;6159130;23;20004;-79
2023/05/15 07:24:35;;;;;;;31.20;26.50;;;;;;;16.13;68.63;101419.53;6134031;23;20464;-79
2023/05/15 07:27:00;;;;;;;28.45;24.85;;;;;;;16.15;69.41;101427.44;6134942;23;20403;-79
2023/05/15 07:29:26;;;;;;;28.35;25.17;;;;;;;16.36;69.98;101423.38;6134187;23;20024;-79
2023/05/15 07:31:51;;;;;;;26.33;23.10;;;;;;;16.37;67.60;101425.13;6158992;23;20327;-79
2023/05/15 07:34:17;;;;;;;29.10;24.42;;;;;;;16.36;68.34;101420.72;6134714;23;20016;-80
2023/05/15 07:36:45;;;;;;;28.95;24.00;;;;;;;16.57;66.25;101417.50;6134184;23;20408;-79
2023/05/15 07:39:10;;;;;;;23.90;21.35;;;;;;;16.51;64.03;101415.03;6134758;23;20107;-79
2023/05/15 07:41:36;;;;;;;24.17;21.58;;;;;;;16.69;64.51;101412.78;6158771;23;20340;-79
2023/05/15 07:44:01;;;;;;;25.65;22.15;;;;;;;16.67;65.81;101419.91;6159375;23;20343;-80
2023/05/15 07:46:27;;;;;;;24.60;22.15;;;;;;;16.92;65.31;101418.34;6133553;23;20084;-79
2023/05/15 07:48:53;;;;;;;23.10;20.63;;;;;;;16.87;64.03;101422.84;6134702;23;20395;-80
2023/05/15 07:51:19;;;;;;;24.55;22.10;;;;;;;16.92;64.34;101423.63;6134284;23;20032;-80
2023/05/15 07:53:44;;;;;;;25.00;21.67;;;;;;;17.08;64.47;101417.84;6159262;23;20017;-79
2023/05/15 07:56:10;;;;;;;23.77;21.38;;;;;;;16.68;61.68;101421.63;6133668;23;20064;-79
2023/05/15 07:58:36;;;;;;;26.05;21.77;;;;;;;16.49;61.85;101416.84;6134875;23;20115;-79
2023/05/15 08:01:02;;;;;;;25.70;21.35;;;;;;;16.20;63.77;101418.47;6134299;23;20387;-74
2023/05/15 08:03:27;;;;;;;23.25;20.77;;;;;;;16.50;63.41;101413.28;6109507;23;20005;-74
2023/05/15 08:05:52;;;;;;;25.50;21.45;;;;;;;16.86;64.73;101409.66;6133798;23;20216;-74
2023/05/15 08:08:18;;;;;;;23.52;21.02;;;;;;;16.63;61.23;101409.38;6159298;23;20435;-74
2023/05/15 08:10:43;;;;;;;24.90;22.15;;;;;;;16.95;65.52;101409.41;6158012;23;20193;-75
2023/05/15 08:13:09;;;;;;;27.55;23.08;;;;;;;16.78;62.48;101404.59;6134524;23;20141;-74
2023/05/15 08:15:34;;;;;;;24.63;22.02;;;;;;;16.86;63.97;101399.94;6134281;23;20012;-74
2023/05/15 08:18:00;;;;;;;25.45;22.77;;;;;;;16.91;65.67;101402.47;6158701;23;20009;-74
2023/05/15 08:20:25;;;;;;;26.80;23.83;;;;;;;17.08;63.95;101400.22;6134175;23;20390;-74
2023/05/15 08:22:51;;;;;;;25.13;22.40;;;;;;;17.24;63.46;101402.38;6133580;23;20017;-74
2023/05/15 08:25:16;;;;;;;25.58;22.80;;;;;;;17.24;62.05;101399.72;6133617;23;20399;-74
2023/05/15 08:27:42;;;;;;;30.02;23.55;;;;;;;17.33;62.77;101404.75;6134348;23;20005;-74
2023/05/15 08:30:11;;;;;;;28.73;24.45;;;;;;;17.28;61.59;101404.00;6158625;23;20179;-74
2023/05/15 08:32:36;;;;;;;29.55;23.95;;;;;;;17.36;61.51;101406.44;6134010;23;20100;-74
2023/05/15 08:35:02;;;;;;;24.58;22.02;;;;;;;17.33;62.39;101398.59;6157937;23;20135;-74
2023/05/15 08:37:27;;;;;;;25.90;22.92;;;;;;;17.34;62.41;101405.59;6109166;23;20076;-74
2023/05/15 08:39:52;;;;;;;27.08;24.20;;;;;;;17.49;61.34;101398.03;6157799;23;20001;-74
2023/05/15 08:42:36;;;;;;;26.88;24.08;;;;;;;17.80;63.36;101406.78;6133889;23;20005;-74
2023/05/15 08:45:02;;;;;;;27.00;23.90;;;;;;;17.82;59.86;101407.59;6158492;23;20009;-75
2023/05/15 08:47:28;;;;;;;26.23;23.20;;;;;;;17.76;59.24;101408.69;6133702;23;20315;-75
2023/05/15 08:50:03;;;;;;;24.17;21.77;;;;;;;17.72;56.84;101407.03;6133182;23;20017;-74
2023/05/15 08:52:29;;;;;;;24.20;21.58;;;;;;;17.78;57.88;101408.63;6157841;23;20372;-75
2023/05/15 08:54:55;;;;;;;23.77;21.30;;;;;;;17.78;58.75;101387.41;6108658;23;20063;-74
2023/05/15 08:57:21;;;;;;;25.50;21.00;;;;;;;17.73;59.85;101389.34;6133848;23;20009;-74
2023/05/15 08:59:48;;;;;;;21.30;18.67;;;;;;;17.68;57.92;101394.81;6132844;23;20067;-74
2023/05/15 09:02:14;;;;;;;22.67;20.08;;;;;;;17.56;58.81;101397.88;6158370;23;20044;-79
2023/05/15 09:04:40;;;;;;;23.67;19.50;;;;;;;17.48;58.10;101392.78;6158510;23;20331;-79
2023/05/15 09:07:06;;;;;;;21.30;18.92;;;;;;;17.72;58.18;101388.47;6157608;23;20009;-78
2023/05/15 09:09:36;;;;;;;22.00;19.42;;;;;;;17.59;58.51;101393.31;6108857;23;20092;-79
2023/05/15 09:12:02;;;;;;;22.00;19.47;;;;;;;17.65;57.58;101398.41;6134985;23;20088;-78
2023/05/15 09:14:28;;;;;;;22.30;19.33;;;;;;;17.49;58.16;101399.84;6109532;23;20263;-79
2023/05/15 09:16:54;;;;;;;22.58;20.15;;;;;;;17.60;60.28;101403.00;6134107;23;20450;-80
2023/05/15 09:19:21;;;;;;;22.65;19.60;;;;;;;17.44;57.30;101396.44;6133848;23;20012;-79
2023/05/15 09:21:46;;;;;;;28.17;22.00;;;;;;;17.20;59.32;101398.97;6158034;23;20092;-78
2023/05/15 09:24:23;;;;;;;25.73;22.98;;;;;;;17.12;59.92;101400.97;6184608;23;20273;-79
2023/05/15 09:27:05;;;;;;;27.05;24.33;;;;;;;16.66;61.95;101403.13;6158342;23;20009;-78
2023/05/15 09:29:32;;;;;;;29.05;25.00;;;;;;;16.76;62.66;101403.75;6158035;23;20001;-79
2023/05/15 09:32:03;;;;;;;28.48;25.48;;;;;;;16.94;66.08;101403.25;6134305;23;20101;-80
2023/05/15 09:34:34;;;;;;;31.27;25.98;;;;;;;16.84;63.29;101401.75;6133268;23;20009;-80
2023/05/15 09:37:02;;;;;;;28.27;25.27;;;;;;;17.04;62.97;101402.97;6132543;23;20347;-80
2023/05/15 09:39:28;;;;;;;27.98;24.75;;;;;;;17.23;61.79;101403.31;6157471;23;20012;-79
2023/05/15 09:42:04;;;;;;;25.63;22.33;;;;;;;17.09;60.79;101401.91;6134044;23;20347;-80
2023/05/15 09:44:30;;;;;;;22.77;20.33;;;;;;;17.21;59.81;101400.72;6135704;23;20008;-79
2023/05/15 09:46:56;;;;;;;24.13;20.95;;;;;;;17.41;61.20;101401.84;6133533;23;20096;-80
2023/05/15 09:49:22;;;;;;;27.17;21.58;;;;;;;17.55;61.11;101388.16;6109095;23;20017;-80
2023/05/15 09:51:49;;;;;;;22.83;20.48;;;;;;;17.69;60.93;101395.69;6133364;23;20094;-80
2023/05/15 09:54:18;;;;;;;23.60;20.98;;;;;;;17.65;60.15;101387.81;6157219;23;20001;-79
2023/05/15 09:56:44;;;;;;;24.40;19.65;;;;;;;17.62;58.45;101393.22;6108433;23;20474;-79
2023/05/15 09:59:15;;;;;;;23.02;20.52;;;;;;;17.65;60.58;101389.59;6158106;23;20024;-80
2023/05/15 10:01:51;;;;;;;22.88;19.50;;;;;;;17.73;60.44;101392.88;6184586;23;20427;-78
2023/05/15 10:04:16;;;;;;;21.88;19.58;;;;;;;17.52;58.19;101394.44;6133746;23;20009;-79
2023/05/15 10:06:45;;;;;;;21.83;18.65;;;;;;;17.52;60.57;101390.94;6133274;23;20368;-79
2023/05/15 10:09:13;;;;;;;22.83;20.38;;;;;;;17.63;60.39;101397.59;6157320;23;20009;-80
2023/05/15 10:11:43;;;;;;;25.92;20.00;;;;;;;17.51;58.58;101398.00;6132821;23;20033;-80
2023/05/15 10:14:10;;;;;;;23.00;19.77;;;;;;;17.51;59.01;101405.09;6133967;23;20012;-79
2023/05/15 10:16:37;;;;;;;23.80;20.50;;;;;;;17.36;59.65;101398.50;6157650;23;20001;-79
2023/05/15 10:19:09;;;;;;;24.23;20.77;;;;;;;17.44;59.98;101396.44;6157951;23;20080;-78
2023/05/15 10:21:40;;;;;;;23.40;20.35;;;;;;;17.41;60.46;101401.84;6133089;23;20048;-78
2023/05/15 10:24:07;;;;;;;23.50;19.65;;;;;;;17.30;59.06;101403.06;6156929;23;20009;-80
2023/05/15 10:26:40;;;;;;;23.08;19.13;;;;;;;17.21;61.60;101408.66;6108505;23;20053;-80
2023/05/15 10:29:17;;;;;;;22.77;18.85;;;;;;;17.05;61.80;101407.38;6133594;23;20402;-80
2023/05/15 10:31:44;;;;;;;23.45;18.77;;;;;;;16.97;62.75;101408.44;6157888;23;20059;-80
2023/05/15 10:34:10;;;;;;;22.27;19.80;;;;;;;16.88;62.57;101414.03;6133810;23;20017;-80
2023/05/15 10:36:37;;;;;;;23.98;21.38;;;;;;;16.72;62.82;101407.41;6133330;23;20330;-81
2023/05/15 10:39:05;;;;;;;25.30;22.08;;;;;;;16.53;64.79;101407.91;6157322;23;20485;-80
2023/05/15 10:41:41;;;;;;;24.88;22.23;;;;;;;16.55;65.71;101411.41;6157099;23;20005;-80
2023/05/15 10:44:07;;;;;;;24.13;21.23;;;;;;;16.49;65.43;101403.59;6133728;23;20424;-78
2023/05/15 10:46:36;;;;;;;23.20;20.80;;;;;;;16.43;64.79;101407.31;6109847;23;20425;-78
2023/05/15 10:49:03;;;;;;;25.05;22.45;;;;;;;16.50;66.59;101404.50;6159264;23;20093;-80
2023/05/15 10:51:32;;;;;;;26.38;20.98;;;;;;;16.51;65.34;101407.09;6134662;23;20395;-79
2023/05/15 10:53:59;;;;;;;24.42;21.95;;;;;;;16.44;65.80;101402.88;6159719;23;20009;-79
2023/05/15 10:56:38;;;;;;;26.40;22.63;;;;;;;16.55;66.88;101400.81;6159179;23;20091;-80
2023/05/15 10:59:09;;;;;;;22.98;20.58;;;;;;;16.42;64.69;101399.38;6159585;23;20013;-79
2023/05/15 11:01:38;;;;;;;24.65;22.05;;;;;;;16.28;65.39;101407.72;6135272;23;20053;-81
2023/05/15 11:04:15;;;;;;;25.05;22.17;;;;;;;16.52;67.27;101400.91;6159636;23;20092;-80
2023/05/15 11:06:46;;;;;;;26.05;23.30;;;;;;;16.47;66.79;101402.78;6135496;23;20009;-80
2023/05/15 11:09:20;;;;;;;;;;;;;;;16.69;64.43;101405.69;6159403;23;20478;-79
2023/05/15 11:11:59;;;;;;;28.52;22.88;;;;;;;16.49;66.19;101400.97;6159651;23;19991;-79
2023/05/15 11:14:26;;;;;;;25.48;22.70;;;;;;;16.47;65.52;101402.78;6135032;23;20431;-80
2023/05/15 11:16:51;;;;;;;23.40;21.02;;;;;;;16.40;66.38;101411.81;6159603;23;20009;-80
2023/05/15 11:19:30;;;;;;;25.30;21.27;;;;;;;16.43;66.74;101401.13;6159361;23;20423;-79
2023/05/15 11:21:59;;;;;;;25.13;22.35;;;;;;;16.33;66.13;101404.94;6158639;23;20478;-80
2023/05/15 11:24:32;;;;;;;26.77;23.88;;;;;;;16.26;66.74;101405.13;6185345;23;20008;-80
2023/05/15 11:27:02;;;;;;;29.02;23.45;;;;;;;16.09;66.47;101404.66;6135324;23;20316;-79
2023/05/15 11:29:28;;;;;;;24.75;22.00;;;;;;;16.15;66.87;101403.63;6134721;23;20043;-79